Time;durP1;ratioP1;P1;durP2;ratioP2;P2;SDS_P1;SDS_P2;PMS_P1;PMS_P2;Temp;Humidity;BMP_temperature;BMP_pressure;BME280_temperature;BME280_humidity;BME280_pressure;Samples;Min_cycle;Max_cycle;Signal;HPM_P1;HPM_P2
2021/07/15 00:00:34;;;;;;;2.03;1.40;;;15.50;99.90;;;;;;4934830;29;20559;-47
2021/07/15 00:03:06;;;;;;;1.40;1.30;;;15.50;99.90;;;;;;4934967;29;20267;-50
2021/07/15 00:05:38;;;;;;;1.35;1.23;;;15.50;99.90;;;;;;4934790;29;20306;-45
2021/07/15 00:08:08;;;;;;;3.08;1.38;;;15.40;99.90;;;;;;4934763;29;20236;-48
2021/07/15 00:10:40;;;;;;;4.70;1.40;;;15.40;99.90;;;;;;4934367;29;20279;-50
2021/07/15 00:13:09;;;;;;;1.13;1.02;;;15.40;99.90;;;;;;4934718;29;20255;-51
2021/07/15 00:15:40;;;;;;;0.93;0.93;;;15.40;99.90;;;;;;4934844;29;20212;-48
2021/07/15 00:18:09;;;;;;;1.20;1.10;;;15.40;99.90;;;;;;4934562;29;20219;-50
2021/07/15 00:20:45;;;;;;;1.88;1.13;;;15.40;99.90;;;;;;4934705;29;20233;-45
2021/07/15 00:23:14;;;;;;;3.35;1.42;;;15.30;99.90;;;;;;4934544;29;20324;-49
2021/07/15 00:25:43;;;;;;;1.00;0.95;;;15.30;99.90;;;;;;4934520;29;20215;-48
2021/07/15 00:28:11;;;;;;;1.23;0.93;;;15.30;99.90;;;;;;4934636;29;20314;-50
2021/07/15 00:30:39;;;;;;;1.10;1.00;;;15.30;99.90;;;;;;4934462;29;20238;-47
2021/07/15 00:33:07;;;;;;;0.80;0.80;;;15.30;99.90;;;;;;4934623;29;20212;-48
2021/07/15 00:35:36;;;;;;;2.85;0.70;;;15.30;99.90;;;;;;4934616;29;20231;-48
2021/07/15 00:38:06;;;;;;;1.20;0.90;;;15.40;99.90;;;;;;4934314;29;20223;-49
2021/07/15 00:40:36;;;;;;;1.85;0.90;;;15.40;99.90;;;;;;4934666;29;20824;-45
2021/07/15 00:43:05;;;;;;;1.33;0.80;;;15.30;99.90;;;;;;4934530;29;20240;-48
2021/07/15 00:45:32;;;;;;;0.63;0.60;;;15.40;99.90;;;;;;4934446;29;20592;-50
2021/07/15 00:48:01;;;;;;;0.55;0.55;;;15.40;99.90;;;;;;4934300;29;20362;-49
2021/07/15 00:50:30;;;;;;;0.68;0.60;;;15.40;99.90;;;;;;4934178;29;20227;-49
2021/07/15 00:52:58;;;;;;;0.40;0.40;;;15.40;99.90;;;;;;4934295;29;20303;-41
2021/07/15 00:55:32;;;;;;;0.40;0.40;;;15.40;99.90;;;;;;4934389;29;20316;-49
2021/07/15 00:58:00;;;;;;;0.50;0.50;;;15.40;99.90;;;;;;4934513;29;20263;-46
2021/07/15 01:00:28;;;;;;;0.65;0.60;;;15.40;99.90;;;;;;4936714;29;20394;-51
2021/07/15 01:02:57;;;;;;;0.50;0.50;;;15.40;99.90;;;;;;4937705;29;20677;-48
2021/07/15 01:05:27;;;;;;;0.63;0.63;;;15.40;99.90;;;;;;4937882;29;20298;-46
2021/07/15 01:07:54;;;;;;;0.60;0.60;;;15.40;99.90;;;;;;4937713;29;20332;-46
2021/07/15 01:10:26;;;;;;;0.35;0.35;;;15.40;99.90;;;;;;4937747;29;20327;-48
2021/07/15 01:13:10;;;;;;;1.08;0.40;;;15.40;99.90;;;;;;4937586;29;20315;-49
2021/07/15 01:15:46;;;;;;;0.40;0.40;;;15.40;99.90;;;;;;4937450;29;20244;-51
2021/07/15 01:18:23;;;;;;;0.50;0.50;;;15.30;99.90;;;;;;4937648;29;20310;-49
2021/07/15 01:21:16;;;;;;;0.60;0.40;;;15.30;99.90;;;;;;4937347;29;20214;-49
2021/07/15 01:24:26;;;;;;;0.40;0.40;;;15.30;99.90;;;;;;4937510;29;20297;-49
2021/07/15 01:27:25;;;;;;;0.65;0.35;;;15.30;99.90;;;;;;4937381;29;20212;-47
2021/07/15 01:30:02;;;;;;;0.43;0.43;;;15.30;99.90;;;;;;4937165;29;20295;-51
2021/07/15 01:32:34;;;;;;;0.50;0.50;;;15.30;99.90;;;;;;4937509;29;20616;-46
2021/07/15 01:35:06;;;;;;;1.85;0.32;;;15.20;99.90;;;;;;4937362;29;20216;-49
2021/07/15 01:37:36;;;;;;;0.30;0.30;;;15.20;99.90;;;;;;4937331;29;20222;-52
2021/07/15 01:40:07;;;;;;;0.55;0.55;;;15.20;99.90;;;;;;4937241;29;20236;-48
2021/07/15 01:42:38;;;;;;;0.30;0.30;;;15.20;99.90;;;;;;4936852;29;20310;-49
2021/07/15 01:45:09;;;;;;;0.82;0.63;;;15.10;99.90;;;;;;4937271;29;20295;-51
2021/07/15 01:47:38;;;;;;;0.30;0.30;;;15.10;99.90;;;;;;4936901;29;20299;-47
2021/07/15 01:50:07;;;;;;;0.40;0.40;;;15.00;99.90;;;;;;4936899;29;20307;-49
2021/07/15 01:52:36;;;;;;;2.40;0.40;;;15.00;99.90;;;;;;4936999;29;20295;-48
2021/07/15 01:55:05;;;;;;;0.60;0.57;;;15.00;99.90;;;;;;4936680;29;20552;-48
2021/07/15 01:57:37;;;;;;;1.98;0.60;;;15.00;99.90;;;;;;4937040;29;20250;-47
2021/07/15 02:00:08;;;;;;;0.68;0.68;;;14.90;99.90;;;;;;4936898;29;20380;-45
2021/07/15 02:02:39;;;;;;;1.10;0.80;;;14.90;99.90;;;;;;4937084;29;20294;-43
2021/07/15 02:05:09;;;;;;;0.70;0.60;;;14.90;99.90;;;;;;4936699;29;20676;-48
2021/07/15 02:07:39;;;;;;;0.80;0.60;;;14.90;99.90;;;;;;4936296;29;20762;-48
2021/07/15 02:10:10;;;;;;;0.80;0.50;;;14.90;99.90;;;;;;4936542;29;20218;-44
2021/07/15 02:12:39;;;;;;;0.77;0.55;;;14.90;99.90;;;;;;4935929;29;20234;-45
2021/07/15 02:15:09;;;;;;;1.10;0.60;;;14.90;99.90;;;;;;4936357;29;20303;-47
2021/07/15 02:17:39;;;;;;;3.53;1.10;;;14.90;99.90;;;;;;4936319;29;20218;-45
2021/07/15 02:20:12;;;;;;;0.88;0.60;;;14.90;99.90;;;;;;4936243;29;20216;-45
2021/07/15 02:22:41;;;;;;;0.95;0.88;;;14.90;99.90;;;;;;4936279;29;20699;-49
2021/07/15 02:25:10;;;;;;;0.55;0.50;;;14.90;99.90;;;;;;4936290;29;20251;-47
2021/07/15 02:27:40;;;;;;;0.52;0.52;;;14.90;99.90;;;;;;4936054;29;20694;-45
2021/07/15 02:30:12;;;;;;;0.60;0.60;;;14.80;99.90;;;;;;4936112;29;20759;-48
2021/07/15 02:32:45;;;;;;;0.90;0.50;;;14.90;99.90;;;;;;4936312;29;20212;-46
2021/07/15 02:35:17;;;;;;;0.90;0.60;;;14.80;99.90;;;;;;4936286;29;20244;-46
2021/07/15 02:37:47;;;;;;;0.90;0.80;;;14.80;99.90;;;;;;4935970;29;20212;-45
2021/07/15 02:40:18;;;;;;;0.80;0.73;;;14.80;99.90;;;;;;4935989;29;20339;-45
2021/07/15 02:42:47;;;;;;;2.83;0.75;;;14.80;99.90;;;;;;4935541;29;20641;-45
2021/07/15 02:45:19;;;;;;;0.55;0.55;;;14.80;99.90;;;;;;4935630;29;20208;-45
2021/07/15 02:47:49;;;;;;;0.77;0.77;;;14.80;99.90;;;;;;4935912;29;20219;-45
2021/07/15 02:50:20;;;;;;;0.90;0.52;;;14.80;99.90;;;;;;4935817;29;20306;-46
2021/07/15 02:52:49;;;;;;;0.77;0.75;;;14.80;99.90;;;;;;4935589;29;20234;-45
2021/07/15 02:55:17;;;;;;;0.60;0.50;;;14.90;99.90;;;;;;4935497;29;20704;-45
2021/07/15 02:57:53;;;;;;;1.48;0.80;;;14.90;99.90;;;;;;4935429;29;20218;-46
2021/07/15 03:00:23;;;;;;;0.82;0.60;;;14.90;99.90;;;;;;4935836;29;20218;-45
2021/07/15 03:02:58;;;;;;;1.50;0.73;;;15.00;99.90;;;;;;4935691;29;20587;-48
2021/07/15 03:05:29;;;;;;;1.88;0.98;;;14.90;99.90;;;;;;4935533;29;20215;-47
2021/07/15 03:08:03;;;;;;;0.50;0.50;;;15.00;99.90;;;;;;4935096;29;20659;-47
2021/07/15 03:10:33;;;;;;;0.77;0.70;;;15.00;99.90;;;;;;4935329;29;20222;-45
2021/07/15 03:13:04;;;;;;;0.50;0.50;;;15.00;99.90;;;;;;4935563;29;20248;-45
2021/07/15 03:15:36;;;;;;;1.27;0.63;;;15.00;99.90;;;;;;4935309;29;20299;-46
2021/07/15 03:18:05;;;;;;;0.50;0.50;;;15.00;99.90;;;;;;4935344;29;20318;-47
2021/07/15 03:20:35;;;;;;;0.50;0.50;;;15.00;99.90;;;;;;4935155;29;20605;-45
2021/07/15 03:23:06;;;;;;;0.57;0.50;;;15.00;99.90;;;;;;4935386;29;20212;-45
2021/07/15 03:25:35;;;;;;;0.73;0.60;;;15.10;99.90;;;;;;4935095;29;20668;-48
2021/07/15 03:28:07;;;;;;;0.40;0.40;;;15.10;99.90;;;;;;4935163;29;20816;-43
2021/07/15 03:30:38;;;;;;;1.42;1.33;;;15.10;99.90;;;;;;4935347;29;20216;-47
2021/07/15 03:33:07;;;;;;;0.70;0.50;;;15.10;99.90;;;;;;4935209;29;20275;-46
2021/07/15 03:35:35;;;;;;;0.50;0.50;;;15.10;99.90;;;;;;4935310;29;20591;-45
2021/07/15 03:38:04;;;;;;;0.50;0.50;;;15.10;99.90;;;;;;4935181;29;20212;-44
2021/07/15 03:40:33;;;;;;;0.73;0.50;;;15.10;99.90;;;;;;4935162;29;20233;-44
2021/07/15 03:43:01;;;;;;;0.40;0.40;;;15.10;99.90;;;;;;4934708;29;20299;-45
2021/07/15 03:45:29;;;;;;;0.57;0.57;;;15.10;99.90;;;;;;4934838;29;20222;-46
2021/07/15 03:47:59;;;;;;;0.60;0.60;;;15.10;99.90;;;;;;4935205;29;20296;-45
2021/07/15 03:50:30;;;;;;;1.33;0.60;;;15.10;99.90;;;;;;4934907;29;20223;-50
2021/07/15 03:53:01;;;;;;;1.48;0.80;;;15.10;99.90;;;;;;4934901;29;20599;-47
2021/07/15 03:55:31;;;;;;;0.90;0.70;;;15.10;99.90;;;;;;4934857;29;20220;-47
2021/07/15 03:58:05;;;;;;;1.48;0.60;;;15.10;99.90;;;;;;4934613;29;20220;-49
2021/07/15 04:00:33;;;;;;;1.65;0.90;;;15.10;99.90;;;;;;4934863;29;20231;-48
2021/07/15 04:03:04;;;;;;;0.65;0.60;;;15.10;99.90;;;;;;4934600;29;20208;-47
2021/07/15 04:05:36;;;;;;;0.82;0.73;;;15.20;99.90;;;;;;4934374;29;20244;-46
2021/07/15 04:08:06;;;;;;;0.90;0.75;;;15.20;99.90;;;;;;4933895;29;20327;-45
2021/07/15 04:10:34;;;;;;;0.60;0.50;;;15.20;99.90;;;;;;4934456;29;20220;-48
2021/07/15 04:13:03;;;;;;;1.40;1.30;;;15.20;99.90;;;;;;4934693;29;20251;-49
2021/07/15 04:15:41;;;;;;;1.90;0.70;;;15.20;99.90;;;;;;4934559;29;20215;-47
2021/07/15 04:18:12;;;;;;;3.78;3.25;;;15.20;99.90;;;;;;4934530;29;20592;-47
2021/07/15 04:20:42;;;;;;;0.93;0.80;;;15.30;99.90;;;;;;4934494;29;20220;-49
2021/07/15 04:23:10;;;;;;;3.33;0.63;;;15.30;99.90;;;;;;4934368;29;20243;-47
2021/07/15 04:25:39;;;;;;;1.35;0.50;;;15.30;99.90;;;;;;4934424;29;20299;-48
2021/07/15 04:28:08;;;;;;;0.30;0.30;;;15.40;99.90;;;;;;4934517;29;20214;-49
2021/07/15 04:30:37;;;;;;;0.38;0.32;;;15.50;99.90;;;;;;4934686;29;20235;-47
2021/07/15 04:33:06;;;;;;;2.00;0.60;;;15.60;99.90;;;;;;4934540;29;20320;-47
2021/07/15 04:35:37;;;;;;;0.68;0.50;;;15.70;99.90;;;;;;4937752;29;20279;-51
2021/07/15 04:38:05;;;;;;;1.10;0.50;;;15.80;99.90;;;;;;4938236;29;20307;-50
2021/07/15 04:40:35;;;;;;;1.75;0.32;;;15.90;99.90;;;;;;4938122;29;20572;-46
2021/07/15 04:43:05;;;;;;;0.90;0.43;;;16.00;99.90;;;;;;4938084;29;20450;-51
2021/07/15 04:45:36;;;;;;;6.22;0.57;;;16.10;99.90;;;;;;4938184;29;20263;-46
2021/07/15 04:48:05;;;;;;;0.32;0.32;;;16.10;99.90;;;;;;4938234;29;20279;-48
2021/07/15 04:50:36;;;;;;;0.93;0.50;;;16.20;99.90;;;;;;4938000;29;20300;-49
2021/07/15 04:53:06;;;;;;;1.48;0.57;;;16.30;99.90;;;;;;4938109;29;20343;-49
2021/07/15 04:55:35;;;;;;;0.43;0.40;;;16.30;99.90;;;;;;4938042;29;20318;-48
2021/07/15 04:58:05;;;;;;;0.50;0.40;;;16.30;99.90;;;;;;4937966;29;20218;-46
2021/07/15 05:00:34;;;;;;;0.40;0.38;;;16.30;99.90;;;;;;4937658;29;20259;-49
2021/07/15 05:03:23;;;;;;;1.58;0.32;;;16.30;99.90;;;;;;4938029;29;20295;-48
2021/07/15 05:05:52;;;;;;;1.10;0.55;;;16.20;99.90;;;;;;4938168;29;20271;-45
2021/07/15 05:08:20;;;;;;;2.22;0.68;;;16.20;99.90;;;;;;4937615;29;20243;-51
2021/07/15 05:10:48;;;;;;;0.93;0.45;;;16.30;99.90;;;;;;4937659;29;20239;-47
2021/07/15 05:13:16;;;;;;;0.93;0.63;;;16.30;99.90;;;;;;4937766;29;20271;-45
2021/07/15 05:15:46;;;;;;;0.50;0.50;;;16.30;99.90;;;;;;4937794;29;20222;-48
2021/07/15 05:18:14;;;;;;;1.35;0.60;;;16.40;99.90;;;;;;4937426;29;20706;-50
2021/07/15 05:20:42;;;;;;;0.90;0.60;;;16.40;99.90;;;;;;4937564;29;20433;-48
2021/07/15 05:23:12;;;;;;;0.80;0.52;;;16.40;99.90;;;;;;4937371;29;20213;-50
2021/07/15 05:25:41;;;;;;;0.73;0.60;;;16.40;99.90;;;;;;4937461;29;20303;-45
2021/07/15 05:28:09;;;;;;;1.58;0.80;;;16.40;99.90;;;;;;4937330;29;20216;-47
2021/07/15 05:30:37;;;;;;;0.90;0.70;;;16.30;99.90;;;;;;4937366;29;20212;-45
2021/07/15 05:33:06;;;;;;;0.88;0.60;;;16.30;99.90;;;;;;4936926;29;20224;-47
2021/07/15 05:35:34;;;;;;;1.15;0.60;;;16.40;99.90;;;;;;4937144;29;20672;-47
2021/07/15 05:38:04;;;;;;;0.90;0.75;;;16.40;99.90;;;;;;4937068;29;20295;-46
2021/07/15 05:40:34;;;;;;;0.70;0.68;;;16.50;99.90;;;;;;4937319;29;20254;-48
2021/07/15 05:43:02;;;;;;;1.30;1.02;;;16.50;99.90;;;;;;4936696;29;20255;-47
2021/07/15 05:45:31;;;;;;;0.90;0.77;;;16.50;99.90;;;;;;4935993;29;20263;-49
2021/07/15 05:47:59;;;;;;;1.38;1.10;;;16.50;99.90;;;;;;4936535;29;20716;-47
2021/07/15 05:50:27;;;;;;;2.00;1.80;;;16.50;99.90;;;;;;4936616;29;20580;-51
2021/07/15 05:52:55;;;;;;;1.25;0.57;;;16.60;99.90;;;;;;4936915;29;20236;-45
2021/07/15 05:55:23;;;;;;;2.33;0.45;;;16.60;99.90;;;;;;4936682;29;20212;-46
2021/07/15 05:57:53;;;;;;;0.75;0.50;;;16.60;99.90;;;;;;4936770;29;20275;-45
2021/07/15 06:00:21;;;;;;;2.53;0.93;;;16.60;99.90;;;;;;4936606;29;20279;-44
2021/07/15 06:02:49;;;;;;;1.85;1.08;;;16.70;99.90;;;;;;4936357;29;20720;-47
2021/07/15 06:05:28;;;;;;;2.08;1.00;;;16.80;99.90;;;;;;4936872;29;20212;-44
2021/07/15 06:07:55;;;;;;;0.60;0.60;;;16.90;99.90;;;;;;4936709;29;20243;-45
2021/07/15 06:10:24;;;;;;;1.10;0.70;;;17.00;99.90;;;;;;4936844;29;20302;-43
2021/07/15 06:12:53;;;;;;;1.50;0.80;;;17.20;99.90;;;;;;4936363;29;20324;-45
2021/07/15 06:15:22;;;;;;;0.90;0.65;;;17.30;99.90;;;;;;4936564;29;20220;-43
2021/07/15 06:17:50;;;;;;;0.20;0.20;;;17.40;99.90;;;;;;4936673;29;20520;-45
2021/07/15 06:20:17;;;;;;;1.58;0.30;;;17.50;99.90;;;;;;4936551;29;20244;-51
2021/07/15 06:22:46;;;;;;;2.08;0.73;;;17.50;99.90;;;;;;4936305;29;20247;-54
2021/07/15 06:25:14;;;;;;;0.50;0.40;;;17.50;99.90;;;;;;4936257;29;20291;-53
2021/07/15 06:27:44;;;;;;;1.50;0.38;;;17.60;99.90;;;;;;4936273;29;20302;-46
2021/07/15 06:30:15;;;;;;;0.45;0.40;;;17.60;99.90;;;;;;4936128;29;20235;-49
2021/07/15 06:32:43;;;;;;;0.85;0.50;;;17.50;99.90;;;;;;4935692;29;20327;-52
2021/07/15 06:35:16;;;;;;;1.25;0.95;;;17.50;99.90;;;;;;4935653;29;20346;-52
2021/07/15 06:37:48;;;;;;;1.20;0.55;;;17.40;99.90;;;;;;4935680;29;20243;-51
2021/07/15 06:40:16;;;;;;;0.63;0.30;;;17.30;99.90;;;;;;4935772;29;20683;-51
2021/07/15 06:42:44;;;;;;;2.47;1.20;;;17.30;99.90;;;;;;4935757;29;20300;-50
2021/07/15 06:45:13;;;;;;;1.95;0.70;;;17.30;99.90;;;;;;4935410;29;20307;-47
2021/07/15 06:47:43;;;;;;;1.45;0.80;;;17.40;99.90;;;;;;4935380;29;20244;-53
2021/07/15 06:50:12;;;;;;;1.90;0.70;;;17.40;99.90;;;;;;4935288;29;20219;-49
2021/07/15 06:52:40;;;;;;;0.55;0.40;;;17.50;99.90;;;;;;4935108;29;20255;-50
2021/07/15 06:55:10;;;;;;;0.75;0.30;;;17.30;99.90;;;;;;4935339;29;20295;-53
2021/07/15 06:57:38;;;;;;;1.00;0.90;;;17.10;99.90;;;;;;4934726;29;20214;-49
2021/07/15 07:00:09;;;;;;;1.00;1.00;;;17.00;99.90;;;;;;4935561;29;20307;-49
2021/07/15 07:02:42;;;;;;;1.05;0.60;;;16.90;99.90;;;;;;4935265;29;20239;-52
2021/07/15 07:05:11;;;;;;;0.60;0.50;;;16.90;99.90;;;;;;4934926;29;20216;-52
2021/07/15 07:07:44;;;;;;;1.05;0.50;;;16.90;99.90;;;;;;4934673;29;20247;-47
2021/07/15 07:10:14;;;;;;;1.50;0.52;;;17.00;99.90;;;;;;4934779;29;20223;-47
2021/07/15 07:12:42;;;;;;;0.90;0.88;;;17.10;99.90;;;;;;4935153;29;20401;-49
2021/07/15 07:15:13;;;;;;;4.43;1.00;;;17.10;99.90;;;;;;4935164;29;20919;-46
2021/07/15 07:17:42;;;;;;;0.68;0.40;;;17.00;99.90;;;;;;4935192;29;20295;-49
2021/07/15 07:20:12;;;;;;;0.90;0.90;;;16.90;99.90;;;;;;4935071;29;20633;-48
2021/07/15 07:22:41;;;;;;;0.90;0.80;;;16.90;99.90;;;;;;4935090;29;20680;-50
2021/07/15 07:25:13;;;;;;;3.53;0.90;;;17.00;99.90;;;;;;4935050;29;20572;-51
2021/07/15 07:27:41;;;;;;;2.25;1.52;;;17.00;99.90;;;;;;4935010;29;20220;-49
2021/07/15 07:30:11;;;;;;;0.88;0.70;;;17.00;99.90;;;;;;4934905;29;20216;-49
2021/07/15 07:32:39;;;;;;;1.38;0.75;;;17.00;99.90;;;;;;4935153;29;20223;-46
2021/07/15 07:35:10;;;;;;;1.20;1.10;;;17.00;99.90;;;;;;4934770;29;20232;-47
2021/07/15 07:37:38;;;;;;;1.77;1.48;;;16.90;99.90;;;;;;4934925;29;20240;-49
2021/07/15 07:40:08;;;;;;;1.70;1.10;;;16.80;99.90;;;;;;4934858;29;20215;-47
2021/07/15 07:42:37;;;;;;;0.93;0.90;;;16.70;99.90;;;;;;4934785;29;20243;-49
2021/07/15 07:45:08;;;;;;;0.77;0.70;;;16.60;99.90;;;;;;4934708;29;20622;-47
2021/07/15 07:47:36;;;;;;;1.15;1.05;;;16.70;99.90;;;;;;4934688;29;20613;-47
2021/07/15 07:50:06;;;;;;;0.82;0.63;;;16.80;99.90;;;;;;4934730;29;20219;-50
2021/07/15 07:52:36;;;;;;;1.70;1.60;;;16.90;99.90;;;;;;4934786;29;20299;-46
2021/07/15 07:55:05;;;;;;;2.78;2.17;;;16.90;99.90;;;;;;4934211;29;20247;-50
2021/07/15 07:57:33;;;;;;;0.70;0.70;;;16.90;99.90;;;;;;4934528;29;20579;-48
2021/07/15 08:00:01;;;;;;;1.10;0.70;;;16.90;99.90;;;;;;4934678;29;20220;-49
2021/07/15 08:02:30;;;;;;;1.20;1.10;;;17.10;99.90;;;;;;4934715;29;20220;-50
2021/07/15 08:04:58;;;;;;;1.67;0.73;;;17.10;99.90;;;;;;4934645;29;20326;-55
2021/07/15 08:07:26;;;;;;;1.25;0.70;;;17.10;99.90;;;;;;4934165;29;20330;-49
2021/07/15 08:09:55;;;;;;;1.00;0.90;;;17.20;99.90;;;;;;4935992;29;20219;-51
2021/07/15 08:12:23;;;;;;;0.60;0.57;;;17.10;99.90;;;;;;4938451;29;20684;-51
2021/07/15 08:14:51;;;;;;;3.58;1.38;;;17.00;99.90;;;;;;4938197;29;20719;-49
2021/07/15 08:17:19;;;;;;;0.80;0.80;;;16.90;99.90;;;;;;4938590;29;20299;-50
2021/07/15 08:19:47;;;;;;;0.70;0.70;;;16.90;99.90;;;;;;4938325;29;20220;-50
2021/07/15 08:22:15;;;;;;;1.33;0.80;;;16.80;99.90;;;;;;4938248;29;20299;-48
2021/07/15 08:24:44;;;;;;;1.00;0.90;;;16.70;99.90;;;;;;4938211;29;20226;-48
2021/07/15 08:27:13;;;;;;;2.42;2.22;;;16.70;99.90;;;;;;4938198;29;20742;-47
2021/07/15 08:29:41;;;;;;;1.00;0.98;;;16.70;99.90;;;;;;4938119;29;20473;-53
2021/07/15 08:32:09;;;;;;;1.33;1.02;;;16.70;99.90;;;;;;4937759;29;20625;-53
2021/07/15 08:34:37;;;;;;;1.00;0.90;;;16.70;99.90;;;;;;4938055;29;20255;-49
2021/07/15 08:37:05;;;;;;;0.95;0.80;;;16.70;99.90;;;;;;4937916;29;20212;-51
2021/07/15 08:39:34;;;;;;;0.68;0.65;;;16.80;99.90;;;;;;4938195;29;20319;-53
2021/07/15 08:42:02;;;;;;;1.27;0.98;;;17.00;99.90;;;;;;4937839;29;20212;-53
2021/07/15 08:44:32;;;;;;;1.00;0.90;;;17.10;99.90;;;;;;4937935;29;20251;-53
2021/07/15 08:47:01;;;;;;;1.90;0.70;;;17.30;99.90;;;;;;4937966;29;20247;-50
2021/07/15 08:49:30;;;;;;;0.85;0.73;;;17.40;99.90;;;;;;4937883;29;20212;-52
2021/07/15 08:51:58;;;;;;;2.00;1.63;;;17.60;99.90;;;;;;4938107;29;20218;-47
2021/07/15 08:54:37;;;;;;;1.25;0.65;;;17.90;99.90;;;;;;4937897;29;20498;-46
2021/07/15 08:57:05;;;;;;;1.33;0.88;;;18.20;99.90;;;;;;4937966;29;20212;-46
2021/07/15 08:59:34;;;;;;;1.10;0.90;;;18.40;99.90;;;;;;4937874;29;20223;-50
2021/07/15 09:02:03;;;;;;;0.68;0.57;;;18.60;99.90;;;;;;4937804;29;20218;-50
2021/07/15 09:04:32;;;;;;;1.95;0.82;;;18.70;99.90;;;;;;4937653;29;20212;-49
2021/07/15 09:07:00;;;;;;;0.73;0.60;;;18.70;99.90;;;;;;4937369;29;20788;-51
2021/07/15 09:09:28;;;;;;;0.70;0.70;;;18.80;99.90;;;;;;4937610;29;20208;-47
2021/07/15 09:11:56;;;;;;;1.40;1.30;;;18.90;99.90;;;;;;4937633;29;20215;-49
2021/07/15 09:14:25;;;;;;;2.88;1.17;;;18.90;99.90;;;;;;4937501;29;20283;-47
2021/07/15 09:16:56;;;;;;;0.82;0.80;;;18.90;99.90;;;;;;4937478;29;20295;-49
2021/07/15 09:19:26;;;;;;;0.75;0.75;;;18.90;99.90;;;;;;4937765;29;20557;-47
2021/07/15 09:22:07;;;;;;;0.88;0.70;;;18.80;99.90;;;;;;4937121;29;20303;-51
2021/07/15 09:24:37;;;;;;;1.60;0.75;;;18.60;99.90;;;;;;4937541;29;20291;-48
2021/07/15 09:27:14;;;;;;;1.05;0.63;;;18.20;99.90;;;;;;4936974;29;20218;-46
2021/07/15 09:29:42;;;;;;;1.35;0.90;;;18.00;99.90;;;;;;4936829;29;20310;-46
2021/07/15 09:32:15;;;;;;;0.70;0.60;;;18.00;99.90;;;;;;4936981;29;20645;-47
2021/07/15 09:34:44;;;;;;;0.93;0.60;;;18.10;99.90;;;;;;4937055;29;20228;-46
2021/07/15 09:37:14;;;;;;;0.52;0.47;;;18.30;99.90;;;;;;4936980;29;20266;-46
2021/07/15 09:39:46;;;;;;;0.82;0.52;;;18.40;99.90;;;;;;4936879;29;20334;-51
2021/07/15 09:42:18;;;;;;;0.47;0.47;;;18.50;99.90;;;;;;4936797;29;20218;-51
2021/07/15 09:44:48;;;;;;;0.65;0.55;;;18.50;99.90;;;;;;4937135;29;20668;-48
2021/07/15 09:47:39;;;;;;;0.77;0.55;;;18.70;99.90;;;;;;4936759;29;20294;-48
2021/07/15 09:50:26;;;;;;;0.70;0.60;;;18.90;99.90;;;;;;4936726;29;20216;-45
2021/07/15 09:53:14;;;;;;;0.68;0.63;;;19.00;99.90;;;;;;4936740;29;20212;-46
2021/07/15 09:55:42;;;;;;;0.60;0.60;;;18.90;99.90;;;;;;4936731;29;20279;-47
2021/07/15 09:58:12;;;;;;;0.95;0.68;;;18.90;99.90;;;;;;4936731;29;20303;-50
2021/07/15 10:00:41;;;;;;;0.60;0.60;;;19.00;99.90;;;;;;4936750;29;20223;-48
2021/07/15 10:03:12;;;;;;;1.58;0.82;;;19.00;99.90;;;;;;4936871;29;20224;-48
2021/07/15 10:05:52;;;;;;;2.00;0.60;;;19.00;99.90;;;;;;4936217;29;20214;-46
2021/07/15 10:08:28;;;;;;;1.85;0.82;;;19.10;99.90;;;;;;4936166;29;20311;-52
2021/07/15 10:10:57;;;;;;;1.05;0.95;;;19.30;99.90;;;;;;4936426;29;20699;-49
2021/07/15 10:13:26;;;;;;;0.82;0.43;;;19.60;99.90;;;;;;4936349;29;20649;-48
2021/07/15 10:15:54;;;;;;;0.35;0.35;;;19.80;99.90;;;;;;4936448;29;20235;-52
2021/07/15 10:18:38;;;;;;;1.50;0.65;;;19.90;99.90;;;;;;4936504;29;20222;-51
2021/07/15 10:21:08;;;;;;;0.93;0.85;;;19.90;99.90;;;;;;4936231;29;20291;-50
2021/07/15 10:23:38;;;;;;;1.75;1.15;;;19.80;99.90;;;;;;4936497;29;20306;-48
2021/07/15 10:26:26;;;;;;;2.25;0.50;;;19.80;99.90;;;;;;4936226;29;20215;-51
2021/07/15 10:28:55;;;;;;;1.10;1.00;;;19.80;99.90;;;;;;4935943;29;20254;-57
2021/07/15 10:31:24;;;;;;;0.40;0.40;;;19.70;99.90;;;;;;4935890;29;20279;-59
2021/07/15 10:33:54;;;;;;;0.90;0.30;;;19.50;99.90;;;;;;4935530;29;20327;-53
2021/07/15 10:36:23;;;;;;;0.93;0.47;;;19.50;99.90;;;;;;4935780;29;20712;-58
2021/07/15 10:38:52;;;;;;;0.52;0.52;;;19.50;99.90;;;;;;4935812;29;20240;-55
2021/07/15 10:41:22;;;;;;;0.98;0.60;;;19.30;99.90;;;;;;4935737;29;20569;-55
2021/07/15 10:43:53;;;;;;;0.77;0.60;;;19.30;99.90;;;;;;4935403;29;20653;-56
2021/07/15 10:46:27;;;;;;;2.78;0.80;;;19.20;99.90;;;;;;4935560;29;20574;-56
2021/07/15 10:49:14;;;;;;;0.43;0.43;;;19.10;99.90;;;;;;4935697;29;20220;-55
2021/07/15 10:51:45;;;;;;;4.88;2.55;;;19.00;99.90;;;;;;4935742;29;20220;-57
2021/07/15 10:54:15;;;;;;;2.88;1.67;;;19.00;99.90;;;;;;4935589;29;20260;-56
2021/07/15 10:56:46;;;;;;;0.80;0.68;;;19.00;99.90;;;;;;4935361;29;20232;-55
2021/07/15 10:59:26;;;;;;;0.82;0.60;;;19.00;99.90;;;;;;4935441;29;20306;-56
2021/07/15 11:01:55;;;;;;;1.25;0.40;;;19.10;99.90;;;;;;4935745;29;20251;-57
2021/07/15 11:04:37;;;;;;;1.27;1.05;;;19.10;99.90;;;;;;4935533;29;20296;-57
2021/07/15 11:07:21;;;;;;;0.50;0.50;;;19.20;99.90;;;;;;4935279;29;20243;-55
2021/07/15 11:09:50;;;;;;;0.47;0.47;;;19.50;99.90;;;;;;4935646;29;20216;-56
2021/07/15 11:12:36;;;;;;;0.50;0.50;;;19.80;99.90;;;;;;4935372;29;20279;-54
2021/07/15 11:15:10;;;;;;;0.77;0.60;;;20.20;99.90;;;;;;4935179;29;20299;-56
2021/07/15 11:17:43;;;;;;;1.40;0.80;;;20.60;99.90;;;;;;4935145;29;20275;-57
2021/07/15 11:20:14;;;;;;;1.02;0.93;;;20.90;99.90;;;;;;4935644;29;20608;-54
2021/07/15 11:22:53;;;;;;;0.73;0.70;;;20.90;99.90;;;;;;4935368;29;20208;-56
2021/07/15 11:25:42;;;;;;;1.30;0.50;;;21.00;99.90;;;;;;4935108;29;20208;-56
2021/07/15 11:28:18;;;;;;;0.63;0.52;;;21.10;99.90;;;;;;4935233;29;20387;-55
2021/07/15 11:30:50;;;;;;;0.40;0.40;;;21.30;99.90;;;;;;4935456;29;20227;-57
2021/07/15 11:33:33;;;;;;;0.60;0.60;;;21.50;99.90;;;;;;4934967;29;20212;-54
2021/07/15 11:36:07;;;;;;;3.28;1.00;;;21.80;99.90;;;;;;4934816;29;20228;-55
2021/07/15 11:38:38;;;;;;;1.45;0.60;;;21.90;99.90;;;;;;4935065;29;20211;-54
2021/07/15 11:41:08;;;;;;;0.68;0.60;;;22.00;99.90;;;;;;4934828;29;20251;-56
2021/07/15 11:43:50;;;;;;;0.80;0.60;;;21.90;99.90;;;;;;4934815;29;20243;-58
2021/07/15 11:46:20;;;;;;;0.40;0.40;;;22.00;99.90;;;;;;4934838;29;20295;-56
2021/07/15 11:49:05;;;;;;;1.25;1.00;;;21.90;99.90;;;;;;4934627;29;20216;-58
2021/07/15 11:51:43;;;;;;;0.90;0.77;;;21.90;99.90;;;;;;4934363;29;20684;-56
2021/07/15 11:54:26;;;;;;;0.65;0.65;;;21.90;99.90;;;;;;4934164;29;20770;-58
2021/07/15 11:56:58;;;;;;;1.00;0.70;;;21.90;99.90;;;;;;4934317;29;20319;-56
2021/07/15 11:59:39;;;;;;;0.60;0.60;;;22.10;99.90;;;;;;4934720;29;20327;-56
2021/07/15 12:02:09;;;;;;;2.10;0.75;;;22.10;99.90;;;;;;4934213;29;20211;-57
2021/07/15 12:05:11;;;;;;;2.60;1.85;;;22.00;99.90;;;;;;4934589;29;20216;-58
2021/07/15 12:07:42;;;;;;;1.38;1.27;;;22.00;99.90;;;;;;4934250;29;20235;-55
2021/07/15 12:10:13;;;;;;;0.90;0.80;;;21.90;99.90;;;;;;4934483;29;20227;-58
2021/07/15 12:12:42;;;;;;;1.60;0.43;;;21.70;99.90;;;;;;4934575;29;20212;-58
2021/07/15 12:15:19;;;;;;;1.15;0.52;;;21.40;99.90;;;;;;4933913;29;20295;-59
2021/07/15 12:17:50;;;;;;;1.85;0.40;;;21.10;99.90;;;;;;4934048;29;20695;-55
2021/07/15 12:20:18;;;;;;;0.63;0.50;;;20.80;99.90;;;;;;4934665;29;20215;-56
2021/07/15 12:22:54;;;;;;;0.63;0.32;;;20.90;99.90;;;;;;4934405;29;20381;-58
2021/07/15 12:25:27;;;;;;;0.70;0.47;;;21.10;99.90;;;;;;4934418;29;20235;-57
2021/07/15 12:27:58;;;;;;;1.00;0.57;;;21.30;99.90;;;;;;4934107;29;20295;-56
2021/07/15 12:30:43;;;;;;;0.93;0.68;;;21.40;99.90;;;;;;4934467;29;20295;-53
2021/07/15 12:33:13;;;;;;;1.73;0.70;;;21.40;99.90;;;;;;4934671;29;20284;-57
2021/07/15 12:35:42;;;;;;;2.42;0.70;;;21.30;99.90;;;;;;4934468;29;20707;-54
2021/07/15 12:38:19;;;;;;;1.67;0.52;;;21.20;99.90;;;;;;4934600;29;20216;-54
2021/07/15 12:40:48;;;;;;;0.75;0.60;;;21.10;99.90;;;;;;4934391;29;20215;-58
2021/07/15 12:43:18;;;;;;;0.40;0.40;;;21.00;99.90;;;;;;4934784;29;20215;-58
2021/07/15 12:45:54;;;;;;;2.03;0.70;;;21.00;99.90;;;;;;4934318;29;20215;-58
2021/07/15 12:48:23;;;;;;;1.42;0.60;;;21.00;99.90;;;;;;4934313;29;20354;-57
2021/07/15 12:50:57;;;;;;;0.80;0.80;;;21.00;99.90;;;;;;4934398;29;20212;-59
2021/07/15 12:53:31;;;;;;;0.60;0.60;;;21.00;99.90;;;;;;4934184;29;20212;-57
2021/07/15 12:56:00;;;;;;;0.88;0.85;;;21.00;99.90;;;;;;4935675;29;20212;-56
2021/07/15 12:58:28;;;;;;;0.50;0.50;;;21.00;99.90;;;;;;4938156;29;20216;-56
2021/07/15 13:01:02;;;;;;;2.05;0.70;;;20.90;99.90;;;;;;4938036;29;20307;-58
2021/07/15 13:03:31;;;;;;;1.05;0.65;;;20.80;99.90;;;;;;4938389;29;20216;-58
2021/07/15 13:05:59;;;;;;;0.70;0.70;;;20.70;99.90;;;;;;4937615;29;20212;-52
2021/07/15 13:08:45;;;;;;;0.77;0.77;;;20.60;99.90;;;;;;4937712;29;20759;-56